createdAt,value
2022-12-15T00:04:29.494Z,-3.5
2022-12-15T00:09:31.016Z,-3.5
2022-12-15T00:14:29.484Z,-3.6
2022-12-15T00:19:29.583Z,-3.6
2022-12-15T00:24:29.467Z,-3.5
2022-12-15T00:29:29.473Z,-3.6
2022-12-15T00:34:29.420Z,-3.6
2022-12-15T00:39:29.461Z,-3.6
2022-12-15T00:44:29.954Z,-3.6
2022-12-15T00:49:29.460Z,-3.6
2022-12-15T00:54:29.426Z,-3.5
2022-12-15T00:59:29.401Z,-3.6
2022-12-15T01:04:29.480Z,-3.4
2022-12-15T01:09:29.451Z,-3.4
2022-12-15T01:14:29.530Z,-3.4
2022-12-15T01:19:30.297Z,-3.5
2022-12-15T01:24:30.124Z,-3.4
2022-12-15T01:29:29.598Z,-3.5
2022-12-15T01:34:29.788Z,-3.4
2022-12-15T01:39:29.482Z,-3.4
2022-12-15T01:44:29.714Z,-3.5
2022-12-15T01:49:29.646Z,-3.4
2022-12-15T01:54:29.462Z,-3.4
2022-12-15T01:59:29.991Z,-3.5
2022-12-15T02:04:29.706Z,-3.5
2022-12-15T02:09:29.483Z,-3.4
2022-12-15T02:14:29.517Z,-3.5
2022-12-15T02:19:29.556Z,-3.4
2022-12-15T02:24:29.607Z,-3.5
2022-12-15T02:29:29.437Z,-3.4
2022-12-15T02:34:29.676Z,-3.4
2022-12-15T02:39:29.596Z,-3.4
2022-12-15T02:44:29.488Z,-3.5
2022-12-15T02:49:29.605Z,-3.6
2022-12-15T02:54:29.437Z,-3.6
2022-12-15T02:59:31.107Z,-3.6
2022-12-15T03:04:29.461Z,-3.6
2022-12-15T03:09:29.443Z,-3.7
2022-12-15T03:14:29.567Z,-3.6
2022-12-15T03:19:29.860Z,-3.6
2022-12-15T03:24:29.463Z,-3.6
2022-12-15T03:29:30.042Z,-3.7
2022-12-15T03:34:29.514Z,-3.7
2022-12-15T03:39:29.472Z,-3.6
2022-12-15T03:44:29.485Z,-3.7
2022-12-15T03:49:29.628Z,-3.6
2022-12-15T03:54:29.500Z,-3.6
2022-12-15T03:59:29.491Z,-3.7
2022-12-15T04:04:29.795Z,-3.6
2022-12-15T04:09:29.499Z,-3.6
2022-12-15T04:14:29.662Z,-3.7
2022-12-15T04:19:29.637Z,-3.7
2022-12-15T04:24:29.519Z,-3.7
2022-12-15T04:29:29.521Z,-3.8
2022-12-15T04:34:29.617Z,-3.8
2022-12-15T04:39:31.132Z,-3.8
2022-12-15T04:44:29.473Z,-3.8
2022-12-15T04:49:30.156Z,-3.9
2022-12-15T04:54:29.547Z,-3.8
2022-12-15T04:59:30.022Z,-3.8
2022-12-15T05:04:30.305Z,-3.8
2022-12-15T05:09:29.536Z,-3.8
2022-12-15T05:14:29.620Z,-3.8
2022-12-15T05:19:29.708Z,-3.8
2022-12-15T05:24:29.527Z,-3.7
2022-12-15T05:29:29.499Z,-3.7
2022-12-15T05:34:29.943Z,-3.6
2022-12-15T05:39:29.812Z,-3.6
2022-12-15T05:44:29.579Z,-3.6
2022-12-15T05:49:30.016Z,-3.6
2022-12-15T05:54:30.118Z,-3.6
2022-12-15T05:59:29.693Z,-3.8
2022-12-15T06:04:29.728Z,-3.7
2022-12-15T06:09:29.803Z,-3.7
2022-12-15T06:14:29.703Z,-3.6
2022-12-15T06:29:29.688Z,-3.6
2022-12-15T06:34:29.617Z,-3.6
2022-12-15T06:39:29.763Z,-3.6
2022-12-15T06:44:29.619Z,-3.6
2022-12-15T06:49:29.643Z,-3.6
2022-12-15T06:54:29.636Z,-3.6
2022-12-15T06:59:29.607Z,-3.8
2022-12-15T07:04:29.682Z,-3.7
2022-12-15T07:09:29.743Z,-3.7
2022-12-15T07:14:30.283Z,-3.6
2022-12-15T07:19:29.653Z,-3.6
2022-12-15T07:24:29.736Z,-3.5
2022-12-15T07:29:29.819Z,-3.5
2022-12-15T07:34:29.691Z,-3.4
2022-12-15T07:39:30.110Z,-3.4
2022-12-15T07:44:30.120Z,-3.3
2022-12-15T07:49:29.955Z,-3.4
2022-12-15T07:54:29.954Z,-3.3
2022-12-15T07:59:29.674Z,-3.3
2022-12-15T08:04:29.880Z,-3.1
2022-12-15T08:09:29.982Z,-3.1
2022-12-15T08:14:29.914Z,-3.1
2022-12-15T08:19:29.695Z,-3.1
2022-12-15T08:24:30.114Z,-3.1
2022-12-15T08:29:50.935Z,-3.2
2022-12-15T08:34:29.824Z,-3.2
2022-12-15T08:39:29.715Z,-3.1
2022-12-15T08:44:29.749Z,-3.1
2022-12-15T08:49:30.467Z,-3
2022-12-15T08:54:29.694Z,-2.8
2022-12-15T08:59:30.010Z,-2.6
2022-12-15T09:04:29.804Z,-2.6
2022-12-15T09:09:29.842Z,-2.4
2022-12-15T09:14:30.047Z,-2.2
2022-12-15T09:19:29.636Z,-2.1
2022-12-15T09:24:34.908Z,-1.9
2022-12-15T09:29:29.656Z,-2.1
2022-12-15T09:34:29.646Z,-2
2022-12-15T09:39:30.003Z,-1.8
2022-12-15T09:44:29.670Z,-1.8
2022-12-15T09:49:29.830Z,-1.6
2022-12-15T09:54:29.693Z,-1.5
2022-12-15T09:59:29.818Z,-1.7
2022-12-15T10:04:29.666Z,-1.5
2022-12-15T10:09:30.017Z,-1.4
2022-12-15T10:14:29.585Z,-1.3
2022-12-15T10:19:29.772Z,-1.3
2022-12-15T10:25:07.751Z,-1.4
2022-12-15T10:29:29.994Z,-1.4
2022-12-15T10:34:29.679Z,-1.1
2022-12-15T10:39:30.109Z,-0.8
2022-12-15T10:44:32.300Z,-0.8
2022-12-15T10:49:29.610Z,-1
2022-12-15T10:54:29.788Z,-0.8
2022-12-15T10:59:29.525Z,-0.4
2022-12-15T11:04:29.630Z,-0.8
2022-12-15T11:09:29.563Z,-0.6
2022-12-15T11:14:29.659Z,-0.6
2022-12-15T11:19:29.776Z,-0.7
2022-12-15T11:24:29.619Z,-0.7
2022-12-15T11:29:29.975Z,-0.8
2022-12-15T11:34:29.626Z,-0.9
2022-12-15T11:39:29.832Z,-0.9
2022-12-15T11:44:29.952Z,-0.7
2022-12-15T11:49:29.829Z,-0.5
2022-12-15T11:54:29.595Z,-0.4
2022-12-15T11:59:29.539Z,-0.4
2022-12-15T12:04:29.813Z,-0.6
2022-12-15T12:09:29.636Z,-0.7
2022-12-15T12:14:29.842Z,-0.8
2022-12-15T12:24:35.587Z,-0.6
2022-12-15T12:29:54.522Z,-0.8
2022-12-15T12:39:32.581Z,-0.8
2022-12-15T12:44:32.629Z,-0.7
2022-12-15T12:49:32.228Z,-0.7
2022-12-15T12:54:32.531Z,-0.6
2022-12-15T12:59:32.724Z,-0.6
2022-12-15T13:04:32.510Z,-0.5
2022-12-15T13:09:32.308Z,-0.6
2022-12-15T13:14:32.497Z,-0.4
2022-12-15T13:19:32.619Z,-0.4
2022-12-15T13:24:32.307Z,-0.6
2022-12-15T13:29:32.700Z,-0.6
2022-12-15T13:34:32.453Z,-0.6
2022-12-15T13:39:32.544Z,-0.4
2022-12-15T13:44:32.166Z,-0.6
2022-12-15T13:49:32.399Z,-0.4
2022-12-15T13:54:32.165Z,-0.4
2022-12-15T13:59:32.235Z,-0.7
2022-12-15T14:04:32.471Z,-0.8
2022-12-15T14:09:32.184Z,-0.8
2022-12-15T14:14:32.239Z,-0.9
2022-12-15T14:19:36.723Z,-1.1
2022-12-15T14:24:39.416Z,-1.1
2022-12-15T14:29:32.670Z,-1.1
2022-12-15T14:34:32.181Z,-1.2
2022-12-15T14:39:33.142Z,-1.1
2022-12-15T14:44:37.687Z,-1.2
2022-12-15T14:49:32.414Z,-1.1
2022-12-15T14:54:32.326Z,-1.3
2022-12-15T14:59:32.179Z,-1.3
2022-12-15T15:04:32.863Z,-1.3
2022-12-15T15:09:32.217Z,-1.3
2022-12-15T15:14:32.428Z,-1.4
2022-12-15T15:19:39.502Z,-1.6
2022-12-15T15:29:36.219Z,-1.7
2022-12-15T15:34:36.847Z,-1.8
2022-12-15T15:39:36.239Z,-1.8
2022-12-15T15:44:36.508Z,-1.9
2022-12-15T15:49:39.267Z,-1.8
2022-12-15T15:54:36.648Z,-1.8
2022-12-15T15:59:36.380Z,-1.9
2022-12-15T16:04:36.241Z,-2.1
2022-12-15T16:09:36.471Z,-2.2
2022-12-15T16:14:36.193Z,-2.3
2022-12-15T16:19:39.556Z,-2.2
2022-12-15T16:24:36.209Z,-2.1
2022-12-15T16:29:36.144Z,-2.1
2022-12-15T16:34:36.737Z,-2.2
2022-12-15T16:39:36.320Z,-2.2
2022-12-15T16:44:36.434Z,-2.2
2022-12-15T16:49:39.931Z,-2.3
2022-12-15T16:54:36.836Z,-2.3
2022-12-15T16:59:36.509Z,-2.3
2022-12-15T17:04:36.264Z,-2.4
2022-12-15T17:09:36.619Z,-2.5
2022-12-15T17:14:37.302Z,-2.5
2022-12-15T17:19:36.426Z,-2.6
2022-12-15T17:24:36.592Z,-2.6
2022-12-15T17:29:36.256Z,-2.5
2022-12-15T17:34:36.485Z,-2.6
2022-12-15T17:39:36.316Z,-2.6
2022-12-15T17:44:37.683Z,-2.8
2022-12-15T17:49:37.931Z,-2.9
2022-12-15T17:54:36.750Z,-3
2022-12-15T17:59:36.480Z,-2.9
2022-12-15T18:04:36.216Z,-3
2022-12-15T18:09:36.205Z,-3.1
2022-12-15T18:14:36.748Z,-3.1
2022-12-15T18:19:36.201Z,-3.1
2022-12-15T18:24:38.112Z,-3.2
2022-12-15T18:29:36.254Z,-3.2
2022-12-15T18:34:36.325Z,-3.3
2022-12-15T18:39:36.779Z,-3.4
2022-12-15T18:44:36.466Z,-3.5
2022-12-15T18:49:36.441Z,-3.6
2022-12-15T18:54:36.800Z,-3.6
2022-12-15T18:59:36.307Z,-3.3
2022-12-15T19:04:36.702Z,-3.4
2022-12-15T19:09:36.232Z,-3.4
2022-12-15T19:14:36.236Z,-3.4
2022-12-15T19:19:36.649Z,-3.4
2022-12-15T19:24:36.253Z,-3.4
2022-12-15T19:29:36.319Z,-3.5
2022-12-15T19:34:36.742Z,-3.5
2022-12-15T19:39:36.350Z,-3.5
2022-12-15T19:44:36.527Z,-3.4
2022-12-15T19:49:36.284Z,-3.4
2022-12-15T19:54:36.342Z,-3.5
2022-12-15T19:59:36.487Z,-3.3
2022-12-15T20:04:36.614Z,-3.4
2022-12-15T20:09:36.622Z,-3.3
2022-12-15T20:14:36.338Z,-3.4
2022-12-15T20:19:37.476Z,-3.4
2022-12-15T20:24:36.585Z,-3.4
2022-12-15T20:29:36.338Z,-3.4
2022-12-15T20:34:36.499Z,-3.4
2022-12-15T20:39:36.408Z,-3.4
2022-12-15T20:44:36.820Z,-3.3
2022-12-15T20:49:36.507Z,-3.3
2022-12-15T20:54:36.329Z,-3.4
2022-12-15T20:59:36.724Z,-3.3
2022-12-15T21:04:36.298Z,-3.2
2022-12-15T21:09:36.286Z,-3.1
2022-12-15T21:14:36.738Z,-3.1
2022-12-15T21:19:36.362Z,-2.9
2022-12-15T21:24:36.595Z,-2.9
2022-12-15T21:29:36.198Z,-2.9
2022-12-15T21:34:36.257Z,-2.8
2022-12-15T21:39:36.662Z,-2.8
2022-12-15T21:44:36.427Z,-2.8
2022-12-15T21:49:36.732Z,-2.8
2022-12-15T21:54:36.282Z,-2.7
2022-12-15T21:59:36.380Z,-2.8
2022-12-15T22:04:36.656Z,-2.8
2022-12-15T22:09:36.320Z,-2.7
2022-12-15T22:14:37.289Z,-2.6
2022-12-15T22:19:36.476Z,-2.6
2022-12-15T22:24:36.309Z,-2.6
2022-12-15T22:29:36.486Z,-2.6
2022-12-15T22:34:36.282Z,-2.4
2022-12-15T22:39:36.753Z,-2.4
2022-12-15T22:44:36.327Z,-2.3
2022-12-15T22:49:36.413Z,-2.3
2022-12-15T22:54:37.736Z,-2.3
2022-12-15T22:59:36.327Z,-2.2
2022-12-15T23:04:36.883Z,-2.2
2022-12-15T23:09:36.354Z,-2.1
2022-12-15T23:14:36.444Z,-2.2
2022-12-15T23:19:36.704Z,-2
2022-12-15T23:24:36.410Z,-2
2022-12-15T23:29:36.806Z,-2
2022-12-15T23:34:36.609Z,-2
2022-12-15T23:39:37.912Z,-2
2022-12-15T23:44:36.630Z,-2
2022-12-15T23:49:36.426Z,-1.9
2022-12-15T23:54:36.597Z,-1.9
2022-12-15T23:59:36.281Z,-1.9
